Time;durP1;ratioP1;P1;durP2;ratioP2;P2;SDS_P1;SDS_P2;PMS_P1;PMS_P2;Temp;Humidity;BMP_temperature;BMP_pressure;BME280_temperature;BME280_humidity;BME280_pressure;Samples;Min_cycle;Max_cycle;Signal;HPM_P1;HPM_P2
2022/04/06 00:00:24;;;;;;;28.77;6.72;;;;;;;11.07;75.74;100456.38;5021820;28;20444;-64
2022/04/06 00:02:50;;;;;;;29.00;6.55;;;;;;;11.05;75.88;100457.34;5024952;28;20076;-63
2022/04/06 00:05:16;;;;;;;42.67;6.93;;;;;;;10.98;75.80;100457.63;5023062;28;20225;-62
2022/04/06 00:07:43;;;;;;;35.40;6.72;;;;;;;10.94;75.96;100455.16;5023896;28;20034;-64
2022/04/06 00:10:09;;;;;;;30.83;6.60;;;;;;;10.90;76.53;100450.94;5025463;28;20039;-62
2022/04/06 00:12:36;;;;;;;35.15;6.90;;;;;;;10.96;76.11;100440.16;5028845;28;20037;-64
2022/04/06 00:15:03;;;;;;;33.65;6.88;;;;;;;10.95;75.78;100444.56;5027425;28;20033;-63
2022/04/06 00:17:28;;;;;;;31.10;7.05;;;;;;;11.03;75.76;100446.88;5025728;28;20484;-62
2022/04/06 00:19:53;;;;;;;28.15;6.40;;;;;;;11.01;76.04;100445.22;5026663;28;20156;-63
2022/04/06 00:22:19;;;;;;;28.80;6.28;;;;;;;11.06;75.63;100445.88;5027128;28;20029;-62
2022/04/06 00:24:44;;;;;;;33.70;6.32;;;;;;;11.05;75.87;100442.38;5025514;28;20029;-63
2022/04/06 00:27:09;;;;;;;29.45;7.93;;;;;;;10.93;75.77;100437.63;5027340;28;20146;-64
2022/04/06 00:29:35;;;;;;;32.92;6.18;;;;;;;10.98;75.28;100430.38;5026446;28;20700;-63
2022/04/06 00:32:00;;;;;;;32.58;7.20;;;;;;;10.89;75.93;100426.34;5027622;28;20036;-63
2022/04/06 00:37:10;;;;;;;30.55;6.07;;;;;;;10.89;75.16;100431.63;5027364;28;20087;-62
2022/04/06 00:39:35;;;;;;;30.23;5.40;;;;;;;10.98;74.87;100430.38;5026952;28;20021;-63
2022/04/06 00:42:00;;;;;;;32.85;6.10;;;;;;;11.06;74.59;100430.06;5026228;28;20225;-64
2022/04/06 00:44:28;;;;;;;35.28;6.95;;;;;;;11.04;74.53;100432.75;5024325;28;20029;-63
2022/04/06 00:46:53;;;;;;;23.70;5.90;;;;;;;11.00;74.92;100428.53;5027661;28;20096;-63
2022/04/06 00:49:18;;;;;;;33.97;6.22;;;;;;;10.94;74.63;100421.75;5026844;28;20507;-63
2022/04/06 00:51:45;;;;;;;32.72;5.07;;;;;;;10.97;74.48;100419.00;5027601;28;20099;-63
2022/04/06 00:54:14;;;;;;;34.13;6.15;;;;;;;11.05;74.07;100416.00;5026733;28;20032;-63
2022/04/06 00:56:40;;;;;;;;;;;;;;;11.03;74.18;100404.69;5025363;28;20029;-63
2022/04/06 00:59:05;;;;;;;27.83;5.13;;;;;;;11.06;73.48;100415.13;5026298;28;19916;-63
2022/04/06 01:01:31;;;;;;;30.75;5.15;;;;;;;10.97;73.67;100411.09;5025749;28;20021;-63
2022/04/06 01:03:56;;;;;;;26.17;5.05;;;;;;;11.01;73.24;100403.88;5026609;28;20552;-63
2022/04/06 01:06:21;;;;;;;21.63;3.78;;;;;;;10.93;72.92;100400.75;5025827;28;20040;-64
2022/04/06 01:08:47;;;;;;;18.73;4.78;;;;;;;11.01;72.70;100403.06;5036339;22;20135;-63
2022/04/06 01:11:12;;;;;;;26.30;4.38;;;;;;;10.91;72.61;100402.56;5009394;28;20431;-62
2022/04/06 01:13:38;;;;;;;24.73;4.30;;;;;;;10.88;72.50;100408.84;5009102;28;20024;-62
2022/04/06 01:16:04;;;;;;;17.13;3.35;;;;;;;10.94;72.65;100389.25;5026442;28;20116;-62
2022/04/06 01:18:32;;;;;;;27.55;4.53;;;;;;;10.96;72.34;100392.69;5026343;28;20067;-63
2022/04/06 01:20:58;;;;;;;18.70;3.85;;;;;;;10.92;72.34;100388.47;5025192;28;20033;-63
2022/04/06 01:23:24;;;;;;;23.27;4.80;;;;;;;10.97;72.03;100402.31;5027239;28;20430;-63
2022/04/06 01:25:49;;;;;;;19.15;3.40;;;;;;;10.87;72.25;100393.94;5026982;28;20033;-63
2022/04/06 01:28:15;;;;;;;15.10;3.70;;;;;;;11.00;72.22;100396.91;5027278;28;20033;-63
2022/04/06 01:30:40;;;;;;;24.70;4.57;;;;;;;10.95;72.32;100398.88;5026283;28;20131;-62
2022/04/06 01:33:06;;;;;;;22.30;4.85;;;;;;;10.87;72.43;100400.06;5027281;28;20539;-62
2022/04/06 01:35:31;;;;;;;14.48;3.60;;;;;;;10.79;72.98;100403.94;5017039;28;20442;-62
2022/04/06 01:37:56;;;;;;;22.27;4.40;;;;;;;10.79;72.52;100394.28;5046803;28;20095;-65
2022/04/06 01:40:25;;;;;;;26.23;4.90;;;;;;;10.82;72.74;100402.06;5045525;28;20051;-63
2022/04/06 01:42:50;;;;;;;22.42;5.20;;;;;;;10.78;72.75;100391.69;5046887;28;20079;-63
2022/04/06 01:45:16;;;;;;;19.55;4.20;;;;;;;10.84;72.39;100397.56;5045937;28;20033;-64
2022/04/06 01:47:41;;;;;;;23.92;5.13;;;;;;;10.80;72.42;100397.75;5046551;28;20098;-63
2022/04/06 01:52:51;;;;;;;22.67;4.35;;;;;;;10.83;72.77;100398.47;5046388;28;20505;-63
2022/04/06 01:55:16;;;;;;;20.75;4.10;;;;;;;10.84;71.98;100402.81;5027139;28;20021;-62
2022/04/06 01:57:43;;;;;;;23.10;4.45;;;;;;;10.91;72.32;100398.16;5036272;28;20082;-63
2022/04/06 02:00:13;;;;;;;23.35;4.60;;;;;;;10.82;72.31;100391.50;5026672;28;20107;-63
2022/04/06 02:02:38;;;;;;;23.80;3.80;;;;;;;10.83;72.29;100395.84;5011383;28;20037;-63
2022/04/06 02:05:04;;;;;;;18.23;4.05;;;;;;;10.79;72.28;100386.38;5028492;28;20029;-63
2022/04/06 02:07:29;;;;;;;24.58;5.53;;;;;;;10.74;72.51;100381.28;5045462;28;20021;-62
2022/04/06 02:09:58;;;;;;;24.58;4.82;;;;;;;10.81;72.33;100381.88;5045901;28;20060;-62
2022/04/06 02:12:23;;;;;;;18.30;3.92;;;;;;;10.77;72.37;100385.56;5037547;28;20032;-63
2022/04/06 02:14:49;;;;;;;16.77;3.97;;;;;;;10.73;71.66;100387.47;5025474;28;20021;-63
2022/04/06 02:17:15;;;;;;;21.27;3.63;;;;;;;10.67;71.43;100374.56;5024329;28;20049;-62
2022/04/06 02:19:40;;;;;;;16.98;3.55;;;;;;;10.69;71.21;100382.41;5008467;28;20471;-62
2022/04/06 02:22:07;;;;;;;20.58;2.97;;;;;;;10.80;70.74;100388.06;5025940;28;20428;-63
2022/04/06 02:24:33;;;;;;;13.27;3.10;;;;;;;10.77;70.87;100368.91;5026766;28;20033;-62
2022/04/06 02:26:58;;;;;;;11.57;2.60;;;;;;;10.68;70.22;100370.13;5028332;28;20113;-62
2022/04/06 02:29:24;;;;;;;16.00;4.22;;;;;;;10.77;70.45;100368.91;5025015;28;20037;-62
2022/04/06 02:31:49;;;;;;;19.05;3.05;;;;;;;10.60;69.75;100368.66;5007949;28;20475;-63
2022/04/06 02:34:15;;;;;;;9.25;2.92;;;;;;;10.67;69.26;100366.66;5025686;28;20079;-62
2022/04/06 02:36:40;;;;;;;12.88;2.55;;;;;;;10.67;68.65;100364.03;5024112;28;20543;-63
2022/04/06 02:39:05;;;;;;;20.17;2.88;;;;;;;10.56;68.20;100367.09;5031736;28;20136;-63
2022/04/06 02:41:31;;;;;;;15.32;2.60;;;;;;;10.64;68.64;100356.25;5035333;28;20082;-63
2022/04/06 02:43:56;;;;;;;6.90;2.35;;;;;;;10.59;67.78;100345.88;5024028;28;20067;-63
2022/04/06 02:46:21;;;;;;;9.75;2.42;;;;;;;10.54;67.90;100345.22;5023731;28;20108;-62
2022/04/06 02:48:47;;;;;;;11.90;2.17;;;;;;;10.59;67.92;100345.03;5007506;28;20034;-63
2022/04/06 02:51:12;;;;;;;11.57;2.25;;;;;;;10.45;68.05;100337.69;5024960;28;20030;-64
2022/04/06 02:53:38;;;;;;;11.88;2.00;;;;;;;10.35;67.96;100340.69;5025849;28;20135;-63
2022/04/06 02:56:03;;;;;;;9.80;2.40;;;;;;;10.41;67.39;100336.94;5007748;28;20036;-62
2022/04/06 02:58:29;;;;;;;5.25;1.77;;;;;;;10.34;67.30;100331.09;5023942;28;20060;-62
2022/04/06 03:00:56;;;;;;;5.88;1.67;;;;;;;10.23;67.75;100320.97;5006986;28;20029;-62
2022/04/06 03:03:21;;;;;;;9.10;1.70;;;;;;;10.26;67.61;100329.69;5007269;28;20044;-65
2022/04/06 03:05:47;;;;;;;8.95;2.50;;;;;;;10.28;67.26;100318.16;5024792;28;20464;-63
2022/04/06 03:08:13;;;;;;;4.93;1.30;;;;;;;10.24;67.28;100313.94;5025125;28;20045;-63
2022/04/06 03:10:38;;;;;;;6.47;2.47;;;;;;;10.21;67.80;100309.66;5025564;28;20029;-63
2022/04/06 03:13:04;;;;;;;8.13;2.03;;;;;;;10.12;68.17;100323.19;5022161;28;20021;-63
2022/04/06 03:15:30;;;;;;;7.55;2.03;;;;;;;10.09;68.07;100313.63;5044595;28;20040;-62
2022/04/06 03:17:55;;;;;;;19.05;2.17;;;;;;;10.21;68.16;100300.91;5044387;28;20017;-63
2022/04/06 03:20:21;;;;;;;15.77;2.88;;;;;;;10.16;68.09;100305.50;5044891;28;20383;-63
2022/04/06 03:22:46;;;;;;;12.05;1.80;;;;;;;10.22;67.80;100306.13;5044944;28;20025;-64
2022/04/06 03:25:11;;;;;;;10.05;1.80;;;;;;;10.13;68.54;100301.22;5044607;28;20021;-62
2022/04/06 03:27:37;;;;;;;11.95;2.00;;;;;;;10.18;68.39;100308.94;5030539;28;20053;-61
2022/04/06 03:30:03;;;;;;;8.80;1.88;;;;;;;10.04;68.58;100302.44;5024497;28;20474;-62
2022/04/06 03:32:29;;;;;;;11.90;2.08;;;;;;;10.02;68.86;100306.06;5022708;28;20482;-62
2022/04/06 03:34:54;;;;;;;9.52;1.70;;;;;;;10.00;68.73;100290.34;5024740;28;20109;-61
2022/04/06 03:37:19;;;;;;;8.85;2.30;;;;;;;10.01;68.91;100292.03;5023884;28;20518;-62
2022/04/06 03:39:45;;;;;;;11.07;2.20;;;;;;;9.89;68.97;100292.53;5007180;28;20117;-62
2022/04/06 03:42:10;;;;;;;13.63;2.55;;;;;;;9.91;69.01;100290.69;5006974;28;20029;-61
2022/04/06 03:44:35;;;;;;;15.13;2.58;;;;;;;9.83;69.61;100291.88;5026749;28;20463;-63
2022/04/06 03:47:01;;;;;;;10.85;1.95;;;;;;;9.97;69.16;100282.56;5034628;28;20079;-63
2022/04/06 03:49:26;;;;;;;7.72;2.03;;;;;;;10.00;68.90;100279.81;5048417;28;20399;-63
2022/04/06 03:51:51;;;;;;;12.32;1.90;;;;;;;10.02;68.93;100277.13;5047647;28;20060;-63
2022/04/06 03:54:17;;;;;;;9.45;2.63;;;;;;;10.03;69.11;100279.69;5048329;28;20033;-63
2022/04/06 03:56:42;;;;;;;19.27;2.70;;;;;;;10.02;68.83;100277.13;5048560;28;20063;-64
2022/04/06 03:59:07;;;;;;;9.63;1.92;;;;;;;10.22;68.44;100271.88;5047343;28;20033;-62
2022/04/06 04:01:35;;;;;;;12.65;2.33;;;;;;;10.19;69.61;100272.00;5044886;28;20072;-62
2022/04/06 04:04:01;;;;;;;17.02;3.22;;;;;;;10.14;70.75;100281.03;5028565;28;20024;-62
2022/04/06 04:06:26;;;;;;;19.67;3.20;;;;;;;10.11;71.52;100277.59;5026276;28;20022;-62
2022/04/06 04:08:51;;;;;;;17.88;3.30;;;;;;;10.13;71.54;100274.03;5028348;28;20526;-62
2022/04/06 04:11:17;;;;;;;15.45;3.20;;;;;;;10.06;71.81;100268.16;5012526;28;20257;-64
2022/04/06 04:13:42;;;;;;;23.08;2.90;;;;;;;10.03;72.11;100266.53;5007542;28;20049;-63
2022/04/06 04:16:08;;;;;;;19.75;3.47;;;;;;;10.10;71.86;100265.34;5006016;28;20488;-61
2022/04/06 04:18:33;;;;;;;22.83;3.30;;;;;;;10.17;71.65;100258.03;5007162;28;20478;-62
2022/04/06 04:23:42;;;;;;;16.00;2.80;;;;;;;10.14;71.58;100262.59;5021924;28;20036;-62
2022/04/06 04:26:08;;;;;;;12.48;2.83;;;;;;;10.09;71.51;100253.09;5046999;28;20020;-61
2022/04/06 04:28:33;;;;;;;18.65;3.15;;;;;;;9.95;72.13;100240.50;5028620;28;20082;-64
2022/04/06 04:30:58;;;;;;;20.85;3.47;;;;;;;10.14;71.63;100246.81;5047427;28;20432;-62
2022/04/06 04:33:24;;;;;;;16.05;2.53;;;;;;;10.03;71.28;100249.88;5046772;28;20029;-62
2022/04/06 04:35:49;;;;;;;18.52;2.70;;;;;;;10.08;71.39;100243.47;5047248;28;20017;-62
2022/04/06 04:38:14;;;;;;;17.70;2.67;;;;;;;10.04;71.50;100239.28;5046812;28;20037;-62
2022/04/06 04:40:40;;;;;;;12.63;2.72;;;;;;;10.11;71.13;100235.47;5047248;28;20029;-63
2022/04/06 04:43:05;;;;;;;12.70;2.58;;;;;;;10.20;70.94;100222.81;5046328;28;20796;-62
2022/04/06 04:45:30;;;;;;;14.85;2.35;;;;;;;10.27;70.72;100226.06;5046612;28;20466;-62
2022/04/06 04:47:57;;;;;;;18.60;3.13;;;;;;;10.19;70.58;100221.13;5046260;28;20075;-62
2022/04/06 04:50:23;;;;;;;19.80;2.85;;;;;;;10.24;70.60;100213.91;5046617;28;20383;-62
2022/04/06 04:52:48;;;;;;;18.85;3.00;;;;;;;10.35;70.71;100223.94;5038196;28;20021;-62
2022/04/06 04:55:14;;;;;;;16.15;2.70;;;;;;;10.33;70.67;100215.28;5027296;28;20033;-62
2022/04/06 04:57:39;;;;;;;16.70;3.00;;;;;;;10.49;69.98;100228.66;5027328;28;20026;-62
2022/04/06 05:00:06;;;;;;;16.15;2.47;;;;;;;10.28;71.00;100231.28;5027094;28;20628;-64
2022/04/06 05:02:31;;;;;;;16.48;2.80;;;;;;;10.41;70.44;100212.31;5045869;28;20483;-63
2022/04/06 05:04:57;;;;;;;19.58;2.78;;;;;;;10.39;70.82;100207.13;5046081;28;20021;-64
2022/04/06 05:07:22;;;;;;;15.25;2.50;;;;;;;10.55;70.72;100217.00;5046137;28;20029;-64
2022/04/06 05:09:49;;;;;;;13.80;3.50;;;;;;;10.42;70.53;100222.75;5043248;28;20071;-63
2022/04/06 05:12:15;;;;;;;12.18;2.83;;;;;;;10.48;70.38;100232.22;5027034;28;20101;-63
2022/04/06 05:14:41;;;;;;;16.92;3.17;;;;;;;10.20;71.75;100218.41;5025698;28;20570;-62
2022/04/06 05:17:06;;;;;;;15.63;3.17;;;;;;;10.43;71.32;100213.97;5026670;28;20021;-63
2022/04/06 05:19:31;;;;;;;19.23;3.35;;;;;;;10.42;71.24;100222.75;5026616;28;20080;-63
2022/04/06 05:21:59;;;;;;;23.30;2.72;;;;;;;10.35;71.45;100216.03;5026904;28;20112;-61
2022/04/06 05:24:24;;;;;;;16.25;3.03;;;;;;;10.38;71.59;100204.53;5026726;28;20100;-62
2022/04/06 05:26:49;;;;;;;15.85;2.53;;;;;;;10.52;71.22;100207.47;5046814;28;20158;-62
2022/04/06 05:29:15;;;;;;;18.33;3.70;;;;;;;10.47;71.55;100198.88;5044963;28;20033;-62
2022/04/06 05:31:40;;;;;;;19.10;2.95;;;;;;;10.47;71.42;100201.53;5044971;28;20099;-63
2022/04/06 05:34:05;;;;;;;14.45;2.42;;;;;;;10.39;71.36;100201.84;5008138;28;20128;-62
2022/04/06 05:36:31;;;;;;;15.68;2.42;;;;;;;10.42;71.49;100203.50;5008411;28;20484;-63
2022/04/06 05:38:57;;;;;;;19.40;3.20;;;;;;;10.54;70.96;100205.59;5025655;28;20041;-61
2022/04/06 05:41:22;;;;;;;13.23;2.45;;;;;;;10.58;70.78;100194.03;5025108;28;20030;-61
2022/04/06 05:43:48;;;;;;;16.33;2.63;;;;;;;10.52;70.53;100206.59;5025721;28;20037;-60
2022/04/06 05:46:13;;;;;;;19.13;3.28;;;;;;;10.50;70.39;100214.56;5017207;28;20029;-62
2022/04/06 05:48:38;;;;;;;15.25;2.25;;;;;;;10.52;69.94;100211.88;5016760;28;20053;-61
2022/04/06 05:51:05;;;;;;;22.38;3.47;;;;;;;10.58;69.23;100204.56;5016441;28;20037;-60
2022/04/06 05:53:30;;;;;;;13.27;2.30;;;;;;;10.52;69.08;100212.72;5013777;28;20076;-62
2022/04/06 05:55:55;;;;;;;15.77;2.83;;;;;;;10.64;69.01;100205.19;5016185;28;20684;-62
2022/04/06 05:58:21;;;;;;;15.48;2.38;;;;;;;10.57;68.58;100194.94;5014948;28;20341;-62
2022/04/06 06:00:46;;;;;;;11.38;2.13;;;;;;;10.64;68.21;100221.00;5014688;28;20025;-62
2022/04/06 06:03:11;;;;;;;15.55;3.08;;;;;;;10.54;67.81;100205.59;5014970;28;20029;-62
2022/04/06 06:05:37;;;;;;;19.77;3.05;;;;;;;10.56;67.80;100193.22;5015791;28;20701;-61
2022/04/06 06:08:02;;;;;;;19.73;2.38;;;;;;;10.56;67.95;100202.91;5001673;28;20171;-60
2022/04/06 06:10:28;;;;;;;10.82;2.40;;;;;;;10.81;67.36;100186.84;4999405;28;20107;-62
2022/04/06 06:12:53;;;;;;;14.48;2.40;;;;;;;10.70;67.07;100204.94;4989935;28;20089;-60
2022/04/06 06:15:19;;;;;;;11.55;2.88;;;;;;;10.47;68.31;100207.66;4989236;28;20623;-62
2022/04/06 06:17:44;;;;;;;10.48;2.10;;;;;;;10.56;67.12;100193.22;4986457;28;20113;-62
2022/04/06 06:20:10;;;;;;;12.82;2.47;;;;;;;10.71;67.39;100193.44;4993420;28;20069;-62
2022/04/06 06:22:35;;;;;;;10.02;2.20;;;;;;;10.52;67.30;100191.66;4988223;28;20036;-62
2022/04/06 06:25:01;;;;;;;10.73;2.33;;;;;;;10.64;67.08;100197.28;4990044;28;20081;-60
2022/04/06 06:27:26;;;;;;;11.80;1.92;;;;;;;10.61;66.61;100171.94;4989367;28;20023;-62
2022/04/06 06:29:51;;;;;;;11.30;2.22;;;;;;;10.78;66.56;100181.75;4991843;28;20048;-67
2022/04/06 06:32:17;;;;;;;13.95;2.40;;;;;;;10.91;66.06;100194.34;5003382;28;20069;-61
2022/04/06 06:34:42;;;;;;;10.60;2.20;;;;;;;10.83;66.52;100174.47;5002360;28;20064;-61
2022/04/06 06:37:09;;;;;;;14.68;2.50;;;;;;;10.94;66.33;100181.03;5003789;28;20038;-60
2022/04/06 06:39:34;;;;;;;15.77;2.42;;;;;;;10.98;66.10;100188.72;5005179;28;20033;-61
2022/04/06 06:42:00;;;;;;;12.40;2.33;;;;;;;11.03;66.39;100175.34;5004837;28;20487;-61
2022/04/06 06:44:25;;;;;;;14.98;2.20;;;;;;;11.11;65.85;100178.44;4993955;28;20030;-65
2022/04/06 06:46:51;;;;;;;12.90;2.40;;;;;;;11.26;65.91;100186.59;4996547;28;20521;-64
2022/04/06 06:49:16;;;;;;;11.73;2.40;;;;;;;11.12;65.91;100174.91;4993619;28;20476;-61
2022/04/06 06:51:41;;;;;;;14.85;2.55;;;;;;;11.16;66.47;100201.09;4995567;28;20162;-60
2022/04/06 06:54:07;;;;;;;18.90;3.40;;;;;;;11.11;67.36;100174.97;4993873;28;20026;-61
2022/04/06 06:56:33;;;;;;;15.18;3.53;;;;;;;11.26;67.09;100181.31;4996309;28;20396;-61
2022/04/06 06:58:58;;;;;;;19.52;2.90;;;;;;;11.26;68.12;100170.75;4993936;28;20049;-62
2022/04/06 07:01:23;;;;;;;18.58;2.22;;;;;;;11.14;69.32;100166.06;5006862;28;20018;-62
2022/04/06 07:03:49;;;;;;;19.75;3.17;;;;;;;11.10;69.78;100171.47;4987290;28;20026;-63
2022/04/06 07:06:15;;;;;;;10.10;2.83;;;;;;;11.21;70.04;100180.66;5004399;28;20356;-63
2022/04/06 07:08:40;;;;;;;17.75;3.28;;;;;;;11.07;70.80;100170.75;5016712;28;20361;-65
2022/04/06 07:11:05;;;;;;;11.93;2.33;;;;;;;11.04;71.40;100177.03;5024905;28;20530;-65
2022/04/06 07:13:31;;;;;;;18.35;2.92;;;;;;;10.82;72.62;100167.50;5028013;28;20022;-61
2022/04/06 07:15:56;;;;;;;14.10;2.13;;;;;;;10.77;72.58;100173.91;5024226;28;20025;-67
2022/04/06 07:18:23;;;;;;;15.00;2.45;;;;;;;10.66;73.15;100177.00;4989420;28;20388;-67
2022/04/06 07:20:48;;;;;;;15.88;2.63;;;;;;;10.65;73.55;100176.16;5013326;28;20032;-65
2022/04/06 07:23:14;;;;;;;16.20;2.88;;;;;;;10.74;73.62;100153.78;5013978;28;20026;-67
2022/04/06 07:25:40;;;;;;;16.10;2.63;;;;;;;10.70;73.31;100155.72;5005714;28;20033;-67
2022/04/06 07:28:06;;;;;;;13.93;2.85;;;;;;;10.76;73.49;100165.13;5013678;28;20022;-64
2022/04/06 07:30:31;;;;;;;12.77;2.28;;;;;;;10.68;73.61;100157.56;5014273;28;20084;-64
2022/04/06 07:32:58;;;;;;;10.10;2.13;;;;;;;10.70;74.25;100160.13;5017330;28;20033;-63
2022/04/06 07:35:24;;;;;;;18.50;2.75;;;;;;;10.64;74.17;100153.38;5012488;28;20018;-64
2022/04/06 07:37:50;;;;;;;23.70;3.08;;;;;;;10.61;75.60;100159.63;5004624;28;20523;-61
2022/04/06 07:40:17;;;;;;;9.95;2.45;;;;;;;10.46;76.62;100160.31;5014327;28;20014;-62
2022/04/06 07:42:43;;;;;;;16.25;2.60;;;;;;;10.29;77.44;100137.34;5012145;28;20018;-62
2022/04/06 07:45:13;;;;;;;18.08;3.03;;;;;;;10.33;77.42;100145.00;5004783;28;20029;-62
2022/04/06 07:47:40;;;;;;;15.20;2.75;;;;;;;10.28;77.76;100143.50;5006618;28;20026;-63
2022/04/06 07:50:06;;;;;;;16.50;3.38;;;;;;;10.33;77.67;100131.84;5015076;28;20067;-63
2022/04/06 07:52:31;;;;;;;17.00;2.25;;;;;;;10.35;77.76;100127.38;5013649;28;20499;-70
2022/04/06 07:54:57;;;;;;;24.30;3.63;;;;;;;10.48;77.43;100137.41;5005539;28;20025;-70
2022/04/06 07:57:24;;;;;;;17.52;3.30;;;;;;;10.53;77.41;100135.41;5003743;28;20528;-69
2022/04/06 07:59:50;;;;;;;17.77;3.25;;;;;;;10.58;77.48;100133.44;5004593;28;20018;-70
2022/04/06 08:02:15;;;;;;;23.65;3.03;;;;;;;10.44;77.78;100115.56;5033696;28;20041;-70
2022/04/06 08:04:41;;;;;;;23.50;3.63;;;;;;;10.63;77.35;100124.47;5043763;28;20544;-70
2022/04/06 08:07:06;;;;;;;18.27;3.70;;;;;;;10.71;77.35;100112.63;5043131;28;20096;-69
2022/04/06 08:09:31;;;;;;;17.77;3.13;;;;;;;10.79;76.96;100125.47;5044349;28;20103;-72
2022/04/06 08:11:57;;;;;;;15.20;3.17;;;;;;;10.86;76.28;100111.06;5031073;28;20030;-71
2022/04/06 08:14:22;;;;;;;17.27;2.83;;;;;;;10.81;76.79;100123.59;5023718;28;20026;-69
2022/04/06 08:16:47;;;;;;;18.40;3.10;;;;;;;10.64;77.10;100127.03;5022641;28;20026;-69
2022/04/06 08:19:13;;;;;;;22.08;3.15;;;;;;;10.70;77.16;100129.38;5024057;28;20025;-70
2022/04/06 08:21:39;;;;;;;22.15;3.13;;;;;;;10.85;76.80;100122.56;5024108;28;20033;-70
2022/04/06 08:24:05;;;;;;;29.85;3.60;;;;;;;10.84;77.19;100117.34;5024490;28;20032;-69
2022/04/06 08:26:31;;;;;;;21.45;3.63;;;;;;;10.60;77.90;100121.03;5004004;28;20033;-62
2022/04/06 08:28:56;;;;;;;25.52;3.95;;;;;;;10.67;77.82;100113.72;5023718;28;20033;-60
2022/04/06 08:31:21;;;;;;;20.88;3.72;;;;;;;10.53;78.97;100130.13;5025115;28;20383;-64
2022/04/06 08:33:47;;;;;;;21.83;5.13;;;;;;;10.63;79.05;100113.91;5027616;28;20032;-60
2022/04/06 08:36:13;;;;;;;18.25;3.63;;;;;;;10.57;79.73;100110.63;5027105;28;20029;-60
2022/04/06 08:38:38;;;;;;;26.35;3.30;;;;;;;10.61;79.60;100114.00;5027678;28;20506;-64
2022/04/06 08:41:06;;;;;;;15.60;3.22;;;;;;;10.78;79.86;100117.63;5031899;28;20025;-63
2022/04/06 08:43:31;;;;;;;20.17;4.15;;;;;;;10.77;79.79;100100.13;5017693;28;20502;-62
2022/04/06 08:45:57;;;;;;;20.45;3.40;;;;;;;10.82;79.86;100101.59;5017181;28;20435;-62
2022/04/06 08:48:28;;;;;;;20.33;4.15;;;;;;;10.77;80.00;100100.94;5017580;28;20022;-63
2022/04/06 08:50:54;;;;;;;20.42;4.20;;;;;;;10.64;79.55;100105.09;5024148;28;20018;-63
2022/04/06 08:53:20;;;;;;;19.85;3.33;;;;;;;10.75;79.89;100105.47;5008916;28;20033;-64
2022/04/06 08:55:46;;;;;;;19.63;3.55;;;;;;;10.70;80.14;100102.16;5005793;28;20052;-64
2022/04/06 08:58:11;;;;;;;21.17;3.85;;;;;;;10.69;80.10;100106.56;5004351;28;20396;-63
2022/04/06 09:00:37;;;;;;;15.05;3.22;;;;;;;10.78;80.18;100102.69;5007830;28;20033;-64
2022/04/06 09:03:02;;;;;;;14.48;3.22;;;;;;;10.83;79.58;100105.94;5016088;28;20704;-64
2022/04/06 09:05:29;;;;;;;18.75;4.32;;;;;;;10.93;79.40;100102.88;5016366;28;20025;-65
2022/04/06 09:07:55;;;;;;;17.40;4.68;;;;;;;10.76;80.02;100101.88;5015825;28;20476;-63
2022/04/06 09:10:37;;;;;;;18.88;3.70;;;;;;;10.99;79.30;100106.06;5008529;28;20149;-63
2022/04/06 09:19:38;;;;;;;20.23;4.28;;;;;;;10.62;80.71;100091.97;5061789;28;20399;-63
2022/04/06 09:22:07;;;;;;;29.10;4.90;;;;;;;10.83;79.41;100094.53;5061556;28;20103;-64
2022/04/06 09:24:32;;;;;;;28.98;5.13;;;;;;;11.04;78.75;100099.72;5062367;28;20025;-62
2022/04/06 09:27:02;;;;;;;24.67;3.90;;;;;;;11.10;78.47;100102.94;5061613;28;20028;-65
2022/04/06 09:29:27;;;;;;;32.20;4.95;;;;;;;11.15;78.24;100096.56;5061173;28;20048;-63
2022/04/06 09:31:53;;;;;;;24.63;4.35;;;;;;;11.35;77.73;100096.44;5060504;28;20528;-64
2022/04/06 09:34:23;;;;;;;23.02;4.43;;;;;;;11.34;77.33;100100.03;5060703;28;20044;-63
2022/04/06 09:36:56;;;;;;;26.40;4.10;;;;;;;11.20;77.62;100100.69;5059128;28;20025;-63
2022/04/06 09:39:40;;;;;;;16.88;3.97;;;;;;;11.30;77.36;100100.25;5061195;28;20032;-63
2022/04/06 09:42:05;;;;;;;26.27;4.72;;;;;;;11.40;77.08;100090.94;5061312;28;20115;-62
2022/04/06 09:50:14;;;;;;;19.95;3.38;;;;;;;12.19;73.88;100098.50;5059281;28;20493;-64
2022/04/06 09:52:41;;;;;;;20.25;3.95;;;;;;;12.29;73.08;100091.78;5027035;28;20033;-63
2022/04/06 09:55:08;;;;;;;23.48;4.18;;;;;;;12.37;72.81;100097.50;5030773;28;20530;-62
2022/04/06 09:57:39;;;;;;;22.02;3.50;;;;;;;12.57;72.24;100086.78;5030696;28;20560;-63
2022/04/06 10:00:05;;;;;;;20.90;3.72;;;;;;;12.42;72.68;100112.25;5021765;28;20041;-64
2022/04/06 10:02:33;;;;;;;25.42;3.65;;;;;;;12.35;72.97;100072.97;5039438;28;20101;-63
2022/04/06 10:04:59;;;;;;;19.02;4.40;;;;;;;12.43;72.53;100087.56;5022194;28;20039;-63
2022/04/06 10:07:25;;;;;;;20.17;4.20;;;;;;;12.73;71.86;100090.31;5037838;28;20387;-63
2022/04/06 10:09:50;;;;;;;18.60;3.15;;;;;;;12.87;71.86;100071.03;5040606;28;20036;-64
2022/04/06 10:12:17;;;;;;;17.05;3.63;;;;;;;12.77;72.02;100075.13;5040397;28;20025;-64
2022/04/06 10:14:43;;;;;;;20.20;4.57;;;;;;;12.76;71.35;100062.84;5038556;28;20028;-63
2022/04/06 10:17:08;;;;;;;17.98;3.47;;;;;;;12.87;71.00;100065.75;5037793;28;20027;-62
2022/04/06 10:19:39;;;;;;;24.50;4.00;;;;;;;12.75;71.60;100061.13;5022776;28;20022;-63
2022/04/06 10:22:12;;;;;;;31.17;4.05;;;;;;;12.60;72.21;100063.69;5023838;28;20021;-64
2022/04/06 10:25:10;;;;;;;19.48;4.22;;;;;;;12.32;72.56;100069.63;5038852;28;20028;-62
2022/04/06 10:27:41;;;;;;;20.52;3.80;;;;;;;12.33;72.52;100066.03;5040164;28;20094;-62
2022/04/06 10:30:09;;;;;;;12.88;2.97;;;;;;;12.24;72.61;100067.38;5017931;28;20340;-63
2022/04/06 10:32:42;;;;;;;15.57;3.03;;;;;;;12.15;72.42;100070.50;5027648;28;20359;-61
2022/04/06 10:35:21;;;;;;;16.38;4.03;;;;;;;12.26;72.59;100053.16;5029082;28;20037;-62
2022/04/06 10:37:58;;;;;;;18.55;3.53;;;;;;;12.19;72.65;100049.16;5038277;28;20399;-63
2022/04/06 10:40:24;;;;;;;18.35;3.25;;;;;;;12.28;72.72;100058.38;5044555;28;20045;-62
2022/04/06 10:42:50;;;;;;;20.27;3.00;;;;;;;12.29;72.19;100059.22;5044386;28;20017;-69
2022/04/06 10:45:25;;;;;;;13.20;3.33;;;;;;;12.35;71.94;100033.34;5043892;28;20025;-60
2022/04/06 10:48:09;;;;;;;14.30;2.78;;;;;;;12.61;71.26;100036.31;5043907;28;20113;-68
2022/04/06 10:50:35;;;;;;;10.65;2.78;;;;;;;12.85;70.67;100027.97;5045206;28;20110;-59
2022/04/06 10:53:18;;;;;;;13.30;3.13;;;;;;;13.13;68.76;100020.25;5041671;28;20104;-58
2022/04/06 10:56:16;;;;;;;8.50;2.20;;;;;;;13.38;68.60;100013.50;5043117;28;20037;-59
2022/04/06 10:58:56;;;;;;;12.02;2.67;;;;;;;13.17;68.56;100015.63;5031474;28;20051;-61
2022/04/06 11:01:26;;;;;;;16.38;2.80;;;;;;;12.81;69.42;100052.88;5033003;28;20021;-61
2022/04/06 11:04:05;;;;;;;7.63;2.40;;;;;;;12.72;69.43;100032.22;5033948;28;20096;-63
2022/04/06 11:06:49;;;;;;;8.48;3.05;;;;;;;12.87;69.33;100028.75;5031559;28;20505;-60
2022/04/06 11:12:25;;;;;;;13.38;2.88;;;;;;;12.58;70.20;100022.44;5039353;28;20126;-60
2022/04/06 11:14:59;;;;;;;12.75;2.80;;;;;;;12.58;70.41;100015.34;5040232;28;20013;-68
2022/04/06 11:17:32;;;;;;;10.38;2.75;;;;;;;12.60;70.33;100023.19;5041376;28;20032;-60
2022/04/06 11:19:57;;;;;;;11.52;2.45;;;;;;;12.67;70.90;100008.69;5045380;28;20076;-59
2022/04/06 11:22:23;;;;;;;8.43;3.05;;;;;;;12.50;70.65;99996.44;5043189;28;20056;-60
2022/04/06 11:24:48;;;;;;;12.68;2.78;;;;;;;12.41;71.27;100005.75;5045243;28;20036;-57
2022/04/06 11:27:31;;;;;;;11.48;3.30;;;;;;;12.47;71.30;99999.25;5032617;28;20061;-61
2022/04/06 11:30:19;;;;;;;10.60;2.92;;;;;;;12.25;72.20;100018.91;5042619;28;20675;-60
2022/04/06 11:32:57;;;;;;;9.25;3.20;;;;;;;12.19;72.36;99990.22;5044996;28;20052;-60
2022/04/06 11:35:36;;;;;;;7.63;2.75;;;;;;;12.28;73.13;99997.59;5045624;28;20035;-60
2022/04/06 11:38:06;;;;;;;8.30;3.05;;;;;;;12.43;72.15;100013.56;5040151;28;20078;-61
2022/04/06 11:40:32;;;;;;;9.00;2.67;;;;;;;12.43;71.77;99997.72;5042768;28;20104;-61